createdAt,value
2023-01-19T00:01:43.621Z,68.28
2023-01-19T00:04:11.562Z,66.36
2023-01-19T00:06:39.701Z,65.10
2023-01-19T00:09:07.634Z,64.47
2023-01-19T00:11:35.757Z,63.54
2023-01-19T00:14:04.017Z,62.97
2023-01-19T00:16:32.024Z,61.75
2023-01-19T00:19:00.058Z,60.64
2023-01-19T00:21:28.109Z,57.89
2023-01-19T00:23:56.150Z,56.14
2023-01-19T00:26:23.959Z,57.90
2023-01-19T00:28:53.094Z,59.31
2023-01-19T00:31:21.815Z,63.63
2023-01-19T00:33:52.778Z,65.51
2023-01-19T00:36:20.842Z,64.88
2023-01-19T00:38:48.734Z,64.54
2023-01-19T00:41:17.862Z,64.53
2023-01-19T00:43:45.811Z,64.49
2023-01-19T00:46:13.685Z,64.18
2023-01-19T00:48:41.574Z,64.17
2023-01-19T00:51:09.412Z,64.20
2023-01-19T00:53:37.295Z,64.47
2023-01-19T00:56:05.727Z,63.97
2023-01-19T00:58:33.599Z,63.27
2023-01-19T01:01:03.895Z,63.54
2023-01-19T01:03:32.954Z,64.02
2023-01-19T01:06:01.199Z,63.37
2023-01-19T01:08:30.357Z,62.64
2023-01-19T01:10:58.505Z,61.72
2023-01-19T01:13:28.145Z,61.91
2023-01-19T01:15:57.450Z,62.83
2023-01-19T01:18:26.388Z,62.62
2023-01-19T01:21:02.470Z,61.69
2023-01-19T01:23:30.637Z,61.63
2023-01-19T01:25:58.669Z,61.10
2023-01-19T01:28:26.959Z,60.26
2023-01-19T01:30:57.251Z,60.35
2023-01-19T01:33:40.624Z,59.92
2023-01-19T01:36:12.169Z,59.62
2023-01-19T01:38:41.562Z,57.83
2023-01-19T01:41:09.808Z,57.67
2023-01-19T01:43:58.951Z,59.82
2023-01-19T01:46:30.709Z,64.14
2023-01-19T01:49:13.248Z,66.09
2023-01-19T01:51:48.396Z,65.18
2023-01-19T01:54:22.901Z,64.16
2023-01-19T01:56:56.085Z,63.91
2023-01-19T01:59:39.302Z,64.94
2023-01-19T02:02:39.618Z,64.37
2023-01-19T02:05:26.792Z,63.19
2023-01-19T02:08:23.503Z,61.89
2023-01-19T02:11:11.010Z,61.10
2023-01-19T02:13:45.274Z,60.73
2023-01-19T02:16:16.652Z,60.14
2023-01-19T02:18:45.626Z,58.27
2023-01-19T02:21:44.580Z,57.81
2023-01-19T02:24:13.006Z,59.82
2023-01-19T02:26:45.764Z,63.55
2023-01-19T02:29:19.020Z,65.72
2023-01-19T02:31:47.832Z,65.34
2023-01-19T02:34:18.889Z,65.14
2023-01-19T02:37:06.608Z,65.01
2023-01-19T02:39:45.336Z,65.05
2023-01-19T02:42:25.668Z,64.97
2023-01-19T02:44:56.738Z,65.31
2023-01-19T02:47:24.669Z,65.46
2023-01-19T02:50:01.006Z,65.54
2023-01-19T02:52:29.457Z,66.93
2023-01-19T02:55:19.531Z,66.71
2023-01-19T02:58:31.815Z,64.54
2023-01-19T03:01:48.764Z,63.27
2023-01-19T03:04:41.472Z,62.13
2023-01-19T03:07:27.808Z,60.94
2023-01-19T03:10:31.367Z,58.39
2023-01-19T03:13:11.731Z,58.31
2023-01-19T03:15:55.214Z,60.25
2023-01-19T03:18:28.996Z,61.48
2023-01-19T03:21:02.357Z,64.22
2023-01-19T03:23:33.648Z,66.85
2023-01-19T03:26:05.357Z,66.31
2023-01-19T03:28:36.354Z,65.00
2023-01-19T03:31:16.479Z,62.07
2023-01-19T03:33:52.327Z,58.63
2023-01-19T03:36:57.767Z,55.30
2023-01-19T03:39:28.978Z,57.33
2023-01-19T03:42:04.299Z,59.60
2023-01-19T03:44:37.331Z,59.99
2023-01-19T03:47:08.920Z,61.30
2023-01-19T03:49:39.410Z,65.25
2023-01-19T03:52:07.369Z,69.12
2023-01-19T03:54:35.182Z,65.89
2023-01-19T03:57:03.124Z,62.50
2023-01-19T03:59:31.017Z,57.67
2023-01-19T04:02:00.356Z,54.51
2023-01-19T04:04:28.272Z,54.82
2023-01-19T04:06:56.096Z,55.92
2023-01-19T04:09:24.961Z,56.90
2023-01-19T04:11:53.094Z,57.69
2023-01-19T04:14:21.363Z,58.50
2023-01-19T04:16:49.317Z,59.70
2023-01-19T04:19:17.196Z,64.56
2023-01-19T04:21:45.038Z,68.39
2023-01-19T04:24:12.889Z,65.53
2023-01-19T04:26:40.744Z,62.34
2023-01-19T04:29:08.785Z,57.32
2023-01-19T04:31:37.213Z,54.43
2023-01-19T04:34:05.189Z,55.92
2023-01-19T04:36:33.055Z,57.37
2023-01-19T04:39:00.885Z,58.73
2023-01-19T04:41:30.339Z,60.26
2023-01-19T04:43:59.011Z,64.34
2023-01-19T04:46:26.873Z,67.23
2023-01-19T04:48:54.757Z,65.04
2023-01-19T04:51:22.617Z,62.53
2023-01-19T04:53:50.429Z,58.34
2023-01-19T04:56:18.434Z,55.42
2023-01-19T04:58:46.263Z,56.09
2023-01-19T05:01:14.118Z,57.12
2023-01-19T05:03:42.015Z,57.79
2023-01-19T05:06:09.887Z,58.58
2023-01-19T05:08:37.893Z,59.77
2023-01-19T05:11:05.870Z,64.82
2023-01-19T05:13:33.836Z,68.83
2023-01-19T05:16:02.380Z,66.59
2023-01-19T05:18:36.015Z,64.49
2023-01-19T05:21:04.840Z,61.86
2023-01-19T05:23:34.238Z,56.94
2023-01-19T05:26:03.594Z,54.40
2023-01-19T05:28:33.669Z,55.30
2023-01-19T05:31:01.930Z,56.49
2023-01-19T05:33:30.213Z,57.73
2023-01-19T05:35:58.062Z,58.66
2023-01-19T05:38:34.516Z,59.63
2023-01-19T05:41:03.216Z,64.34
2023-01-19T05:43:31.173Z,67.69
2023-01-19T05:45:59.170Z,66.05
2023-01-19T05:48:26.975Z,63.24
2023-01-19T05:50:59.067Z,60.73
2023-01-19T05:53:27.882Z,57.20
2023-01-19T05:56:06.040Z,55.33
2023-01-19T05:58:35.626Z,56.19
2023-01-19T06:01:06.079Z,57.49
2023-01-19T06:03:36.624Z,59.33
2023-01-19T06:06:04.862Z,63.67
2023-01-19T06:08:32.830Z,71.30
2023-01-19T06:11:00.747Z,67.45
2023-01-19T06:13:28.621Z,63.19
2023-01-19T06:16:03.341Z,60.53
2023-01-19T06:18:31.217Z,56.86
2023-01-19T06:20:59.003Z,55.19
2023-01-19T06:23:31.107Z,55.86
2023-01-19T06:25:59.088Z,56.86
2023-01-19T06:28:27.401Z,58.23
2023-01-19T06:30:58.140Z,59.37
2023-01-19T06:33:28.073Z,63.21
2023-01-19T06:35:57.084Z,67.43
2023-01-19T06:38:25.030Z,66.34
2023-01-19T06:41:04.975Z,64.25
2023-01-19T06:43:33.167Z,62.25
2023-01-19T06:46:02.426Z,61.52
2023-01-19T06:48:30.326Z,57.68
2023-01-19T06:50:59.718Z,54.40
2023-01-19T06:53:29.292Z,55.38
2023-01-19T06:56:02.888Z,57.05
2023-01-19T06:58:32.535Z,57.74
2023-01-19T07:01:07.804Z,59.37
2023-01-19T07:03:37.451Z,64.49
2023-01-19T07:06:09.358Z,67.65
2023-01-19T07:08:40.012Z,66.21
2023-01-19T07:11:24.922Z,64.26
2023-01-19T07:13:58.410Z,62.44
2023-01-19T07:16:26.752Z,57.95
2023-01-19T07:18:54.735Z,55.35
2023-01-19T07:21:23.438Z,55.75
2023-01-19T07:23:52.585Z,57.56
2023-01-19T07:26:21.708Z,59.59
2023-01-19T07:28:50.151Z,64.53
2023-01-19T07:31:19.017Z,68.18
2023-01-19T07:33:47.344Z,67.34
2023-01-19T07:36:15.731Z,65.17
2023-01-19T07:38:43.580Z,62.59
2023-01-19T07:41:11.799Z,60.83
2023-01-19T07:43:39.703Z,58.29
2023-01-19T07:46:08.471Z,55.34
2023-01-19T07:48:36.550Z,55.88
2023-01-19T07:51:10.461Z,57.66
2023-01-19T07:53:42.053Z,58.80
2023-01-19T07:56:10.691Z,63.22
2023-01-19T07:58:39.499Z,68.06
2023-01-19T08:01:13.708Z,66.81
2023-01-19T08:03:41.815Z,64.09
2023-01-19T08:06:38.127Z,61.87
2023-01-19T08:09:07.112Z,61.78
2023-01-19T08:11:35.054Z,62.14
2023-01-19T08:14:03.209Z,61.52
2023-01-19T08:16:31.038Z,60.72
2023-01-19T08:18:58.993Z,60.09
2023-01-19T08:21:28.262Z,59.87
2023-01-19T08:23:58.095Z,57.38
2023-01-19T08:26:33.249Z,55.96
2023-01-19T08:29:05.547Z,56.39
2023-01-19T08:31:33.606Z,57.66
2023-01-19T08:34:01.594Z,59.00
2023-01-19T08:36:29.541Z,59.93
2023-01-19T08:38:57.699Z,63.13
2023-01-19T08:41:25.583Z,66.68
2023-01-19T08:43:53.440Z,66.60
2023-01-19T08:46:22.180Z,64.46
2023-01-19T08:48:50.639Z,63.17
2023-01-19T08:51:18.720Z,61.51
2023-01-19T08:53:47.420Z,57.97
2023-01-19T08:56:15.941Z,55.67
2023-01-19T08:58:51.170Z,56.20
2023-01-19T09:01:25.700Z,56.73
2023-01-19T09:03:58.702Z,58.02
2023-01-19T09:06:28.469Z,58.98
2023-01-19T09:08:57.758Z,59.89
2023-01-19T09:11:25.797Z,63.33
2023-01-19T09:13:53.792Z,65.64
2023-01-19T09:16:21.880Z,65.96
2023-01-19T09:18:49.743Z,64.36
2023-01-19T09:21:18.681Z,62.98
2023-01-19T09:23:46.731Z,62.17
2023-01-19T09:26:15.000Z,61.54
2023-01-19T09:28:42.951Z,58.52
2023-01-19T09:31:11.015Z,56.76
2023-01-19T09:33:39.154Z,57.05
2023-01-19T09:36:07.795Z,58.00
2023-01-19T09:38:35.613Z,59.17
2023-01-19T09:41:04.690Z,60.09
2023-01-19T09:43:42.833Z,63.12
2023-01-19T09:46:21.989Z,65.79
2023-01-19T09:48:59.889Z,65.00
2023-01-19T09:51:35.038Z,62.24
2023-01-19T09:54:14.633Z,61.35
2023-01-19T09:56:51.339Z,58.04
2023-01-19T09:59:28.327Z,55.56
2023-01-19T10:02:34.287Z,55.34
2023-01-19T10:05:05.473Z,56.55
2023-01-19T10:07:55.223Z,57.71
2023-01-19T10:10:32.135Z,56.97
2023-01-19T10:13:27.605Z,56.74
2023-01-19T10:16:35.259Z,57.03
2023-01-19T10:19:38.898Z,53.85
2023-01-19T10:22:23.787Z,54.08
2023-01-19T10:24:58.679Z,52.74
2023-01-19T10:27:31.746Z,53.80
2023-01-19T10:30:01.924Z,54.52
2023-01-19T10:32:36.767Z,55.51
2023-01-19T10:35:22.129Z,56.49
2023-01-19T10:38:01.692Z,57.18
2023-01-19T10:40:43.083Z,58.41
2023-01-19T10:43:45.194Z,58.46
2023-01-19T10:46:46.020Z,58.82
2023-01-19T10:49:38.463Z,60.78
2023-01-19T10:52:31.279Z,60.66
2023-01-19T10:55:01.446Z,64.15
2023-01-19T10:57:37.154Z,66.25
2023-01-19T11:00:42.066Z,64.64
2023-01-19T11:03:28.893Z,58.82
2023-01-19T11:06:15.656Z,57.19
2023-01-19T11:08:47.579Z,57.52
2023-01-19T11:11:15.476Z,57.95
2023-01-19T11:13:44.070Z,60.31
2023-01-19T11:16:32.158Z,61.11
2023-01-19T11:19:02.163Z,61.41
2023-01-19T11:21:33.142Z,60.34
2023-01-19T11:24:05.689Z,61.60
2023-01-19T11:26:41.803Z,62.64
2023-01-19T11:29:22.931Z,65.00
2023-01-19T11:31:53.266Z,65.27
2023-01-19T11:34:38.060Z,60.12
2023-01-19T11:37:28.696Z,57.40
2023-01-19T11:40:02.716Z,56.40
2023-01-19T11:42:34.269Z,57.82
2023-01-19T11:45:13.499Z,58.14
2023-01-19T11:47:49.868Z,59.66
2023-01-19T11:50:42.455Z,59.92
2023-01-19T11:53:28.333Z,60.42
2023-01-19T11:56:04.809Z,61.61
2023-01-19T11:58:39.875Z,62.03
2023-01-19T12:01:28.032Z,62.24
2023-01-19T12:04:15.131Z,67.20
2023-01-19T12:06:54.230Z,64.86
2023-01-19T12:09:42.836Z,61.99
2023-01-19T12:12:32.988Z,57.61
2023-01-19T12:15:21.319Z,54.91
2023-01-19T12:17:53.605Z,55.88
2023-01-19T12:20:39.830Z,57.40
2023-01-19T12:23:27.081Z,57.05
2023-01-19T12:26:13.365Z,58.12
2023-01-19T12:28:47.046Z,56.58
2023-01-19T12:31:18.836Z,55.82
2023-01-19T12:33:47.503Z,55.87
2023-01-19T12:36:30.691Z,56.42
2023-01-19T12:39:23.069Z,55.51
2023-01-19T12:42:18.504Z,54.04
2023-01-19T12:44:48.437Z,55.74
2023-01-19T12:47:16.231Z,55.86
2023-01-19T12:49:53.184Z,56.45
2023-01-19T12:52:41.424Z,57.10
2023-01-19T12:55:17.858Z,58.57
2023-01-19T12:58:01.018Z,59.03
2023-01-19T13:00:41.154Z,60.13
2023-01-19T13:03:18.277Z,61.04
2023-01-19T13:05:55.587Z,62.44
2023-01-19T13:08:30.534Z,75.73
2023-01-19T13:11:10.663Z,66.16
2023-01-19T13:14:05.755Z,60.05
2023-01-19T13:16:36.433Z,55.97
2023-01-19T13:19:07.218Z,56.01
2023-01-19T13:21:39.823Z,56.47
2023-01-19T13:24:12.212Z,57.05
2023-01-19T13:26:49.239Z,58.82
2023-01-19T13:29:41.297Z,59.07
2023-01-19T13:32:19.528Z,59.37
2023-01-19T13:34:59.423Z,61.16
2023-01-19T13:37:40.538Z,64.85
2023-01-19T13:40:21.960Z,67.28
2023-01-19T13:42:53.632Z,65.70
2023-01-19T13:45:33.873Z,62.59
2023-01-19T13:48:07.993Z,58.92
2023-01-19T13:50:39.409Z,57.62
2023-01-19T13:53:29.552Z,58.22
2023-01-19T13:56:17.931Z,59.13
2023-01-19T13:58:58.430Z,60.19
2023-01-19T14:01:29.338Z,63.91
2023-01-19T14:03:59.022Z,66.64
2023-01-19T14:06:39.878Z,65.36
2023-01-19T14:09:19.556Z,64.73
2023-01-19T14:12:17.590Z,63.36
2023-01-19T14:14:51.421Z,62.04
2023-01-19T14:17:26.134Z,60.02
2023-01-19T14:20:01.140Z,57.18
2023-01-19T14:22:47.041Z,55.20
2023-01-19T14:25:40.002Z,55.58
2023-01-19T14:28:43.949Z,56.63
2023-01-19T14:31:23.618Z,57.63
2023-01-19T14:33:56.223Z,59.55
2023-01-19T14:36:39.890Z,63.56
2023-01-19T14:39:23.456Z,67.68
2023-01-19T14:41:54.292Z,66.11
2023-01-19T14:44:39.185Z,63.65
2023-01-19T14:47:27.112Z,61.98
2023-01-19T14:50:01.169Z,58.54
2023-01-19T14:52:38.857Z,55.72
2023-01-19T14:55:25.627Z,56.47
2023-01-19T14:57:54.852Z,57.74
2023-01-19T15:00:24.548Z,59.41
2023-01-19T15:02:52.419Z,62.83
2023-01-19T15:05:20.843Z,67.10
2023-01-19T15:07:49.053Z,66.17
2023-01-19T15:10:23.809Z,63.83
2023-01-19T15:12:54.519Z,62.93
2023-01-19T15:15:40.611Z,58.37
2023-01-19T15:18:17.154Z,54.94
2023-01-19T15:20:45.482Z,56.35
2023-01-19T15:23:14.081Z,57.72
2023-01-19T15:25:42.218Z,58.61
2023-01-19T15:28:20.508Z,59.83
2023-01-19T15:30:48.726Z,64.39
2023-01-19T15:33:23.243Z,67.27
2023-01-19T15:35:52.301Z,67.35
2023-01-19T15:38:20.239Z,66.03
2023-01-19T15:40:51.398Z,63.66
2023-01-19T15:43:21.159Z,62.40
2023-01-19T15:46:02.008Z,58.42
2023-01-19T15:48:29.981Z,55.28
2023-01-19T15:50:58.013Z,56.13
2023-01-19T15:53:27.337Z,58.24
2023-01-19T15:55:58.050Z,60.03
2023-01-19T15:58:26.799Z,63.97
2023-01-19T16:00:58.065Z,66.23
2023-01-19T16:03:26.402Z,65.86
2023-01-19T16:05:54.256Z,64.85
2023-01-19T16:08:22.201Z,63.53
2023-01-19T16:10:50.144Z,62.15
2023-01-19T16:13:18.029Z,61.48
2023-01-19T16:15:46.187Z,61.14
2023-01-19T16:18:14.287Z,60.92
2023-01-19T16:20:42.597Z,57.81
2023-01-19T16:23:14.821Z,55.99
2023-01-19T16:25:43.520Z,57.27
2023-01-19T16:28:11.897Z,59.16
2023-01-19T16:30:40.179Z,63.09
2023-01-19T16:33:09.335Z,65.84
2023-01-19T16:35:37.224Z,64.54
2023-01-19T16:38:05.160Z,63.50
2023-01-19T16:40:33.076Z,63.12
2023-01-19T16:43:01.484Z,62.24
2023-01-19T16:45:29.657Z,61.86
2023-01-19T16:47:57.630Z,61.80
2023-01-19T16:50:25.633Z,60.78
2023-01-19T16:52:57.565Z,59.81
2023-01-19T16:55:25.411Z,59.03
2023-01-19T16:57:53.400Z,57.63
2023-01-19T17:00:22.384Z,58.71
2023-01-19T17:02:50.337Z,60.42
2023-01-19T17:05:18.403Z,64.82
2023-01-19T17:07:46.436Z,69.13
2023-01-19T17:10:14.320Z,68.34
2023-01-19T17:12:42.120Z,66.92
2023-01-19T17:15:10.462Z,65.60
2023-01-19T17:17:38.446Z,64.02
2023-01-19T17:20:07.155Z,63.41
2023-01-19T17:22:34.998Z,62.63
2023-01-19T17:25:03.160Z,61.82
2023-01-19T17:27:31.438Z,61.24
2023-01-19T17:29:59.261Z,57.90
2023-01-19T17:32:27.427Z,55.48
2023-01-19T17:35:00.680Z,56.33
2023-01-19T17:37:28.667Z,57.96
2023-01-19T17:39:56.622Z,62.91
2023-01-19T17:42:24.730Z,66.36
2023-01-19T17:44:52.696Z,65.38
2023-01-19T17:47:25.523Z,64.32
2023-01-19T17:49:53.559Z,63.05
2023-01-19T17:52:21.508Z,62.31
2023-01-19T17:54:49.943Z,61.06
2023-01-19T17:57:18.264Z,57.47
2023-01-19T17:59:47.936Z,55.17
2023-01-19T18:02:16.107Z,56.65
2023-01-19T18:04:44.482Z,59.28
2023-01-19T18:07:12.397Z,63.82
2023-01-19T18:09:40.178Z,67.45
2023-01-19T18:12:08.282Z,65.92
2023-01-19T18:14:36.248Z,64.01
2023-01-19T18:17:04.221Z,62.14
2023-01-19T18:19:32.451Z,58.64
2023-01-19T18:22:01.501Z,56.46
2023-01-19T18:24:29.518Z,56.94
2023-01-19T18:26:57.594Z,58.88
2023-01-19T18:29:25.604Z,63.01
2023-01-19T18:31:53.837Z,67.06
2023-01-19T18:34:24.831Z,66.14
2023-01-19T18:36:54.076Z,64.81
2023-01-19T18:39:22.135Z,62.68
2023-01-19T18:41:50.419Z,61.11
2023-01-19T18:44:18.772Z,57.69
2023-01-19T18:46:46.763Z,56.94
2023-01-19T18:49:14.959Z,58.61
2023-01-19T18:51:42.986Z,62.44
2023-01-19T18:54:12.309Z,65.84
2023-01-19T18:56:40.266Z,65.55
2023-01-19T18:59:08.603Z,64.64
2023-01-19T19:01:37.100Z,64.05
2023-01-19T19:04:06.548Z,63.60
2023-01-19T19:06:35.879Z,63.47
2023-01-19T19:09:04.373Z,62.38
2023-01-19T19:11:32.676Z,61.68
2023-01-19T19:14:06.438Z,61.85
2023-01-19T19:16:38.621Z,61.20
2023-01-19T19:19:33.979Z,60.79
2023-01-19T19:22:02.068Z,60.09
2023-01-19T19:24:30.699Z,59.63
2023-01-19T19:26:58.856Z,60.69
2023-01-19T19:29:29.125Z,57.75
2023-01-19T19:32:04.175Z,56.05
2023-01-19T19:34:34.945Z,57.15
2023-01-19T19:37:02.941Z,59.43
2023-01-19T19:39:30.906Z,63.33
2023-01-19T19:41:58.797Z,65.91
2023-01-19T19:44:27.266Z,65.30
2023-01-19T19:46:55.145Z,64.10
2023-01-19T19:49:23.349Z,64.10
2023-01-19T19:51:52.603Z,65.30
2023-01-19T19:54:20.846Z,63.78
2023-01-19T19:56:52.036Z,64.16
2023-01-19T19:59:20.199Z,64.84
2023-01-19T20:01:49.895Z,64.17
2023-01-19T20:04:20.463Z,63.59
2023-01-19T20:06:50.024Z,62.80
2023-01-19T20:09:20.322Z,61.96
2023-01-19T20:11:49.267Z,61.21
2023-01-19T20:14:17.229Z,60.80
2023-01-19T20:16:45.154Z,60.54
2023-01-19T20:19:13.082Z,59.84
2023-01-19T20:21:42.511Z,57.75
2023-01-19T20:24:19.850Z,56.72
2023-01-19T20:26:53.090Z,57.49
2023-01-19T20:29:21.974Z,58.90
2023-01-19T20:31:56.319Z,62.34
2023-01-19T20:34:32.855Z,66.32
2023-01-19T20:37:04.040Z,64.75
2023-01-19T20:39:33.653Z,62.70
2023-01-19T20:42:02.711Z,61.68
2023-01-19T20:44:31.473Z,61.20
2023-01-19T20:46:59.495Z,60.47
2023-01-19T20:49:30.900Z,58.43
2023-01-19T20:52:01.702Z,56.68
2023-01-19T20:54:30.683Z,57.96
2023-01-19T20:57:02.134Z,60.49
2023-01-19T20:59:34.640Z,65.03
2023-01-19T21:02:06.503Z,67.58
2023-01-19T21:04:34.778Z,66.36
2023-01-19T21:07:02.834Z,65.35
2023-01-19T21:09:31.332Z,64.14
2023-01-19T21:12:01.496Z,63.04
2023-01-19T21:14:35.080Z,62.51
2023-01-19T21:17:05.818Z,62.25
2023-01-19T21:19:34.173Z,61.62
2023-01-19T21:22:02.227Z,61.44
2023-01-19T21:24:30.490Z,61.29
2023-01-19T21:26:58.466Z,60.98
2023-01-19T21:29:26.736Z,60.58
2023-01-19T21:31:54.907Z,57.87
2023-01-19T21:34:23.035Z,56.03
2023-01-19T21:36:53.303Z,57.22
2023-01-19T21:39:21.529Z,59.49
2023-01-19T21:41:49.647Z,61.72
2023-01-19T21:44:17.623Z,65.59
2023-01-19T21:46:45.824Z,67.84
2023-01-19T21:49:20.465Z,66.24
2023-01-19T21:51:52.831Z,64.76
2023-01-19T21:54:20.739Z,63.66
2023-01-19T21:56:49.130Z,62.49
2023-01-19T21:59:18.565Z,61.78
2023-01-19T22:01:51.404Z,61.36
2023-01-19T22:04:19.464Z,60.63
2023-01-19T22:06:48.579Z,60.15
2023-01-19T22:09:18.528Z,58.44
2023-01-19T22:11:46.702Z,58.42
2023-01-19T22:14:14.705Z,60.24
2023-01-19T22:16:43.001Z,64.54
2023-01-19T22:19:14.492Z,66.79
2023-01-19T22:21:42.704Z,65.37
2023-01-19T22:24:10.996Z,64.19
2023-01-19T22:26:39.501Z,62.90
2023-01-19T22:29:13.493Z,62.45
2023-01-19T22:31:41.733Z,61.19
2023-01-19T22:34:11.162Z,61.02
2023-01-19T22:36:39.560Z,60.70
2023-01-19T22:39:11.787Z,60.48
2023-01-19T22:41:43.554Z,60.54
2023-01-19T22:44:16.294Z,60.23
2023-01-19T22:46:44.781Z,60.21
2023-01-19T22:49:16.543Z,58.30
2023-01-19T22:51:45.261Z,58.05
2023-01-19T22:54:13.773Z,60.51
2023-01-19T22:56:42.727Z,64.31
2023-01-19T22:59:10.715Z,66.43
2023-01-19T23:01:42.622Z,66.02
2023-01-19T23:04:14.766Z,63.65
2023-01-19T23:06:43.837Z,62.07
2023-01-19T23:09:14.783Z,61.13
2023-01-19T23:11:50.301Z,60.31
2023-01-19T23:14:21.874Z,57.51
2023-01-19T23:16:49.848Z,56.55
2023-01-19T23:19:18.624Z,58.39
2023-01-19T23:21:46.843Z,59.33
2023-01-19T23:24:14.637Z,62.92
2023-01-19T23:26:42.610Z,65.91
2023-01-19T23:29:14.933Z,65.73
2023-01-19T23:31:46.961Z,64.61
2023-01-19T23:34:15.263Z,63.57
2023-01-19T23:36:44.508Z,62.47
2023-01-19T23:39:20.571Z,61.63
2023-01-19T23:41:49.225Z,60.83
2023-01-19T23:44:18.193Z,60.20
2023-01-19T23:46:46.691Z,58.16
2023-01-19T23:49:14.767Z,57.46
2023-01-19T23:51:42.743Z,59.32
2023-01-19T23:54:12.322Z,61.56
2023-01-19T23:56:40.483Z,65.19
2023-01-19T23:59:15.276Z,67.65
